Time;durP1;ratioP1;P1;durP2;ratioP2;P2;SDS_P1;SDS_P2;PMS_P1;PMS_P2;Temp;Humidity;BMP_temperature;BMP_pressure;BME280_temperature;BME280_humidity;BME280_pressure;Samples;Min_cycle;Max_cycle;Signal;HPM_P1;HPM_P2
2023/10/08 00:02:22;;;;;;;43.58;11.25;;;;;;;;;;4958676;28;21409;-73
2023/10/08 00:04:50;;;;;;;46.45;11.45;;;;;;;;;;4963038;28;20031;-74
2023/10/08 00:07:21;;;;;;;49.72;11.40;;;;;;;;;;4967461;28;20110;-75
2023/10/08 00:09:51;;;;;;;42.03;11.45;;;;;;;;;;4958090;28;20090;-74
2023/10/08 00:12:18;;;;;;;41.40;10.88;;;;;;;;;;4958205;28;20026;-74
2023/10/08 00:14:44;;;;;;;47.75;11.30;;;;;;;;;;4959422;28;20519;-74
2023/10/08 00:17:13;;;;;;;50.08;12.90;;;;;;;;;;4957003;28;20094;-74
2023/10/08 00:19:42;;;;;;;45.47;11.40;;;;;;;;;;4961173;28;20027;-77
2023/10/08 00:22:09;;;;;;;55.33;12.18;;;;;;;;;;4964518;28;20052;-73
2023/10/08 00:24:35;;;;;;;42.67;11.32;;;;;;;;;;4943285;28;20033;-75
2023/10/08 00:27:03;;;;;;;53.67;11.65;;;;;;;;;;4958768;28;20039;-76
2023/10/08 00:29:31;;;;;;;42.15;10.38;;;;;;;;;;4946921;28;20081;-75
2023/10/08 00:31:58;;;;;;;51.33;12.18;;;;;;;;;;4960637;28;20049;-75
2023/10/08 00:34:24;;;;;;;38.45;12.27;;;;;;;;;;4947394;28;20050;-74
2023/10/08 00:36:51;;;;;;;44.63;11.88;;;;;;;;;;4949092;28;20042;-75
2023/10/08 00:39:33;;;;;;;53.15;13.55;;;;;;;;;;4954580;28;20027;-76
2023/10/08 00:41:59;;;;;;;46.90;11.88;;;;;;;;;;4960211;28;20027;-74
2023/10/08 00:44:35;;;;;;;53.38;11.77;;;;;;;;;;4946094;28;20023;-75
2023/10/08 00:47:04;;;;;;;42.97;14.00;;;;;;;;;;4942791;28;20070;-74
2023/10/08 00:57:26;;;;;;;38.35;10.07;;;;;;;;;;4961401;28;20041;-75
2023/10/08 00:59:53;;;;;;;46.38;10.85;;;;;;;;;;4945567;28;20431;-74
2023/10/08 01:02:26;;;;;;;37.20;10.45;;;;;;;;;;4965500;28;20106;-75
2023/10/08 01:04:54;;;;;;;42.72;10.73;;;;;;;;;;4964332;28;20022;-75
2023/10/08 01:07:21;;;;;;;40.47;10.38;;;;;;;;;;4945876;28;20042;-76
2023/10/08 01:09:51;;;;;;;52.92;12.07;;;;;;;;;;4954627;28;20042;-74
2023/10/08 01:12:26;;;;;;;45.50;12.52;;;;;;;;;;4949754;28;20053;-75
2023/10/08 01:15:04;;;;;;;46.72;11.68;;;;;;;;;;4958555;28;20030;-75
2023/10/08 01:17:32;;;;;;;44.45;11.30;;;;;;;;;;4948464;28;20039;-75
2023/10/08 01:22:34;;;;;;;51.25;12.02;;;;;;;;;;4964947;28;20066;-74
2023/10/08 01:25:01;;;;;;;43.08;12.95;;;;;;;;;;4947545;28;20122;-74
2023/10/08 01:27:34;;;;;;;39.28;11.73;;;;;;;;;;4961918;28;20434;-74
2023/10/08 01:30:15;;;;;;;40.83;12.30;;;;;;;;;;4945843;28;20026;-74
2023/10/08 01:32:41;;;;;;;46.53;12.95;;;;;;;;;;4955785;28;20126;-74
2023/10/08 01:35:22;;;;;;;61.58;15.43;;;;;;;;;;4958496;28;20463;-74
2023/10/08 01:37:56;;;;;;;42.05;13.40;;;;;;;;;;4958971;28;20118;-74
2023/10/08 01:40:23;;;;;;;49.92;15.00;;;;;;;;;;4950320;28;20042;-74
2023/10/08 01:42:52;;;;;;;50.05;13.27;;;;;;;;;;4966890;28;20118;-74
2023/10/08 01:45:24;;;;;;;56.20;14.32;;;;;;;;;;4963025;28;20046;-75
2023/10/08 01:47:53;;;;;;;49.30;14.50;;;;;;;;;;4968123;28;20113;-74
2023/10/08 01:50:22;;;;;;;49.05;14.45;;;;;;;;;;4937901;28;20030;-74
2023/10/08 01:52:48;;;;;;;48.35;12.77;;;;;;;;;;4964059;28;20047;-77
2023/10/08 01:55:19;;;;;;;45.22;13.65;;;;;;;;;;4949908;28;20047;-76
2023/10/08 01:57:53;;;;;;;52.95;13.18;;;;;;;;;;4947116;28;20027;-75
2023/10/08 02:00:20;;;;;;;51.50;14.82;;;;;;;;;;4962246;28;20027;-75
2023/10/08 02:02:47;;;;;;;48.08;13.02;;;;;;;;;;4966811;28;20038;-76
2023/10/08 02:05:15;;;;;;;44.85;12.63;;;;;;;;;;4962766;28;20042;-75
2023/10/08 02:07:44;;;;;;;48.42;14.20;;;;;;;;;;4949936;28;20031;-74
2023/10/08 02:10:10;;;;;;;47.17;12.65;;;;;;;;;;4965093;28;20049;-74
2023/10/08 02:12:39;;;;;;;49.83;13.52;;;;;;;;;;4947942;28;20026;-74
2023/10/08 02:15:06;;;;;;;54.53;14.13;;;;;;;;;;4961701;28;20027;-75
2023/10/08 02:17:33;;;;;;;57.30;14.95;;;;;;;;;;4945978;28;20102;-75
2023/10/08 02:20:00;;;;;;;53.85;14.63;;;;;;;;;;4957747;28;20035;-75
2023/10/08 02:22:27;;;;;;;37.17;12.90;;;;;;;;;;4951655;28;20029;-74
2023/10/08 02:24:53;;;;;;;46.88;13.93;;;;;;;;;;4944975;28;20031;-74
2023/10/08 02:27:20;;;;;;;47.65;15.10;;;;;;;;;;4956508;28;20034;-74
2023/10/08 02:29:46;;;;;;;45.05;14.70;;;;;;;;;;4961757;28;20032;-74
2023/10/08 02:32:12;;;;;;;53.03;16.23;;;;;;;;;;4962978;28;20082;-74
2023/10/08 02:34:38;;;;;;;53.25;15.43;;;;;;;;;;4961389;28;20066;-74
2023/10/08 02:37:05;;;;;;;42.75;14.02;;;;;;;;;;4958675;28;20035;-76
2023/10/08 02:39:31;;;;;;;56.97;16.65;;;;;;;;;;4966069;28;20038;-74
2023/10/08 02:41:59;;;;;;;62.28;17.42;;;;;;;;;;4936317;28;20507;-75
2023/10/08 02:44:27;;;;;;;59.08;15.32;;;;;;;;;;4952893;28;20114;-74
2023/10/08 02:46:54;;;;;;;55.72;16.35;;;;;;;;;;4961068;28;20110;-75
2023/10/08 02:49:22;;;;;;;67.28;16.65;;;;;;;;;;4964798;28;20039;-74
2023/10/08 02:51:50;;;;;;;47.22;15.23;;;;;;;;;;4964343;28;20043;-74
2023/10/08 02:54:31;;;;;;;65.95;16.95;;;;;;;;;;4951345;28;20125;-73
2023/10/08 02:57:04;;;;;;;47.28;16.25;;;;;;;;;;4962209;28;20047;-73
2023/10/08 02:59:44;;;;;;;55.22;16.17;;;;;;;;;;4938024;28;20039;-74
2023/10/08 03:02:18;;;;;;;55.72;16.20;;;;;;;;;;4928516;29;20519;-74
2023/10/08 03:04:46;;;;;;;46.53;17.02;;;;;;;;;;4928361;29;20044;-75
2023/10/08 03:07:22;;;;;;;49.05;16.15;;;;;;;;;;4924667;29;20119;-74
2023/10/08 03:10:03;;;;;;;58.83;17.17;;;;;;;;;;4926325;29;20054;-74
2023/10/08 03:12:32;;;;;;;46.60;16.40;;;;;;;;;;4929424;29;20086;-73
2023/10/08 03:15:11;;;;;;;48.92;16.95;;;;;;;;;;4928673;29;20059;-74
2023/10/08 03:17:48;;;;;;;54.25;17.70;;;;;;;;;;4909869;29;20051;-74
2023/10/08 03:20:37;;;;;;;56.38;18.40;;;;;;;;;;4927293;29;20028;-74
2023/10/08 03:23:12;;;;;;;54.40;18.45;;;;;;;;;;4929957;29;20036;-75
2023/10/08 03:25:41;;;;;;;56.05;18.85;;;;;;;;;;4929908;29;20425;-74
2023/10/08 03:28:12;;;;;;;52.50;18.60;;;;;;;;;;4914630;29;20052;-74
2023/10/08 03:33:28;;;;;;;54.10;17.83;;;;;;;;;;4917750;28;20035;-74
2023/10/08 03:35:57;;;;;;;60.88;21.33;;;;;;;;;;4964907;28;20038;-75
2023/10/08 03:38:44;;;;;;;64.28;20.42;;;;;;;;;;4965894;28;20027;-75
2023/10/08 03:41:16;;;;;;;52.55;21.50;;;;;;;;;;4945074;28;20469;-75
2023/10/08 03:44:01;;;;;;;55.63;20.25;;;;;;;;;;4957537;28;20086;-75
2023/10/08 03:46:42;;;;;;;57.08;19.23;;;;;;;;;;4959273;28;20027;-74
2023/10/08 03:51:45;;;;;;;54.30;18.77;;;;;;;;;;4948304;28;20039;-75
2023/10/08 03:54:18;;;;;;;56.92;18.17;;;;;;;;;;4963830;28;20543;-74
2023/10/08 03:56:51;;;;;;;46.47;18.00;;;;;;;;;;4966683;28;20035;-74
2023/10/08 03:59:40;;;;;;;59.42;18.92;;;;;;;;;;4940472;28;20035;-74
2023/10/08 04:04:53;;;;;;;56.58;19.30;;;;;;;;;;4960356;28;20078;-74
2023/10/08 04:12:34;;;;;;;59.65;19.85;;;;;;;;;;4952206;28;20520;-74
2023/10/08 04:15:07;;;;;;;45.33;18.27;;;;;;;;;;4954251;28;20037;-75
2023/10/08 04:17:43;;;;;;;46.17;16.50;;;;;;;;;;4964514;28;20038;-76
2023/10/08 04:20:38;;;;;;;52.25;17.52;;;;;;;;;;4967059;28;20046;-75
2023/10/08 04:23:18;;;;;;;59.95;17.17;;;;;;;;;;4963029;28;20070;-73
2023/10/08 04:25:44;;;;;;;40.97;16.20;;;;;;;;;;4967863;28;20033;-74
2023/10/08 04:28:14;;;;;;;49.88;15.30;;;;;;;;;;4948133;28;20089;-74
2023/10/08 04:30:41;;;;;;;51.53;14.50;;;;;;;;;;4963773;28;20046;-74
2023/10/08 04:33:11;;;;;;;42.42;14.27;;;;;;;;;;4948575;28;20027;-74
2023/10/08 04:35:48;;;;;;;48.50;14.40;;;;;;;;;;4964848;28;20026;-75
2023/10/08 04:38:19;;;;;;;44.40;13.82;;;;;;;;;;4942024;28;20046;-74
2023/10/08 04:40:50;;;;;;;45.22;12.70;;;;;;;;;;4961632;28;20026;-75
2023/10/08 04:43:30;;;;;;;52.55;14.23;;;;;;;;;;4964694;28;20508;-74
2023/10/08 04:46:04;;;;;;;66.80;16.55;;;;;;;;;;4960915;28;20023;-74
2023/10/08 04:48:36;;;;;;;43.70;13.93;;;;;;;;;;4957413;28;20071;-74
2023/10/08 04:51:03;;;;;;;55.08;14.60;;;;;;;;;;4961396;28;20397;-74
2023/10/08 04:53:36;;;;;;;53.75;14.07;;;;;;;;;;4945756;28;20046;-74
2023/10/08 04:56:06;;;;;;;46.90;13.68;;;;;;;;;;4959686;28;20039;-74
2023/10/08 04:58:33;;;;;;;41.13;11.25;;;;;;;;;;4965687;28;20043;-75
2023/10/08 05:01:17;;;;;;;41.67;12.85;;;;;;;;;;4960851;28;20047;-74
2023/10/08 05:17:03;;;;;;;;;;;;;;;;;;4956703;28;20071;-73
2023/10/08 05:22:18;;;;;;;24.80;7.20;;;;;;;;;;4958016;28;20035;-73
2023/10/08 05:25:07;;;;;;;32.53;6.70;;;;;;;;;;4964284;28;20027;-74
2023/10/08 05:27:56;;;;;;;20.42;6.05;;;;;;;;;;4962285;28;20475;-73
2023/10/08 05:30:53;;;;;;;20.17;6.03;;;;;;;;;;4961171;28;20150;-74
2023/10/08 05:38:15;;;;;;;16.15;5.75;;;;;;;;;;4947548;28;20373;-74
2023/10/08 05:49:15;;;;;;;23.05;6.18;;;;;;;;;;4961864;28;20051;-76
2023/10/08 06:02:39;;;;;;;20.10;7.32;;;;;;;;;;4961658;28;20038;-74
2023/10/08 06:13:06;;;;;;;16.50;6.65;;;;;;;;;;4958262;28;20027;-73
2023/10/08 06:15:48;;;;;;;23.27;7.75;;;;;;;;;;4961889;28;20039;-74
2023/10/08 06:18:25;;;;;;;22.98;7.72;;;;;;;;;;4962826;28;20066;-73
2023/10/08 06:20:54;;;;;;;29.92;6.90;;;;;;;;;;4961342;28;20035;-76
2023/10/08 06:23:22;;;;;;;23.77;6.85;;;;;;;;;;4964960;28;20089;-74
2023/10/08 06:25:57;;;;;;;16.80;6.57;;;;;;;;;;4954784;28;20030;-74
2023/10/08 06:28:27;;;;;;;24.23;6.80;;;;;;;;;;4970074;28;20034;-74
2023/10/08 06:30:54;;;;;;;24.35;6.95;;;;;;;;;;4970172;28;20055;-73
2023/10/08 06:33:20;;;;;;;21.60;5.97;;;;;;;;;;4972561;28;20106;-73
2023/10/08 06:36:01;;;;;;;26.75;6.38;;;;;;;;;;4971794;28;20110;-74
2023/10/08 06:38:30;;;;;;;22.15;4.95;;;;;;;;;;4965995;28;20102;-74
2023/10/08 06:41:00;;;;;;;24.88;5.20;;;;;;;;;;4970033;28;20128;-73
2023/10/08 06:43:26;;;;;;;19.42;4.63;;;;;;;;;;4971127;28;20034;-75
2023/10/08 06:45:53;;;;;;;17.00;4.25;;;;;;;;;;4968091;28;20677;-73
2023/10/08 06:48:20;;;;;;;20.30;5.25;;;;;;;;;;4963672;28;20043;-74
2023/10/08 06:50:50;;;;;;;24.50;4.68;;;;;;;;;;4966654;28;20035;-74
2023/10/08 06:53:21;;;;;;;12.80;4.38;;;;;;;;;;4965618;28;20093;-74
2023/10/08 06:55:48;;;;;;;16.75;3.80;;;;;;;;;;4969636;28;20035;-74
2023/10/08 06:58:15;;;;;;;16.73;3.75;;;;;;;;;;4963869;28;20037;-75
2023/10/08 07:00:48;;;;;;;15.88;3.33;;;;;;;;;;4967083;28;20026;-74
2023/10/08 07:03:15;;;;;;;13.35;3.45;;;;;;;;;;4963859;28;20339;-74
2023/10/08 07:05:44;;;;;;;10.77;3.03;;;;;;;;;;4966962;28;20645;-75
2023/10/08 07:08:13;;;;;;;8.60;3.10;;;;;;;;;;4962547;28;20062;-73
2023/10/08 07:10:41;;;;;;;9.82;3.22;;;;;;;;;;4947360;28;20444;-74
2023/10/08 07:13:07;;;;;;;9.98;3.35;;;;;;;;;;4962998;28;20170;-74
2023/10/08 07:15:38;;;;;;;9.43;2.75;;;;;;;;;;4946560;28;20031;-75
2023/10/08 07:18:12;;;;;;;9.38;2.80;;;;;;;;;;4964229;28;20117;-74
2023/10/08 07:20:45;;;;;;;8.77;3.00;;;;;;;;;;4966937;28;20370;-75
2023/10/08 07:23:18;;;;;;;9.15;2.90;;;;;;;;;;4969797;28;20407;-75
2023/10/08 07:25:53;;;;;;;6.60;2.70;;;;;;;;;;4977100;28;20023;-74
2023/10/08 07:28:20;;;;;;;7.05;2.50;;;;;;;;;;4967029;28;20057;-74
2023/10/08 07:30:49;;;;;;;5.35;2.88;;;;;;;;;;4969245;28;20030;-73
2023/10/08 07:33:24;;;;;;;6.03;2.90;;;;;;;;;;4968437;28;20289;-73
2023/10/08 07:35:56;;;;;;;5.18;2.60;;;;;;;;;;4966854;28;20037;-74
2023/10/08 07:38:23;;;;;;;5.85;2.65;;;;;;;;;;4968751;28;20039;-76
2023/10/08 07:40:50;;;;;;;3.70;2.47;;;;;;;;;;4971427;28;20488;-73
2023/10/08 07:43:20;;;;;;;6.22;2.80;;;;;;;;;;4973779;28;20054;-75
2023/10/08 07:45:46;;;;;;;8.10;3.47;;;;;;;;;;4966028;28;20055;-76
2023/10/08 07:48:14;;;;;;;7.05;2.75;;;;;;;;;;4955650;28;20141;-74
2023/10/08 07:50:45;;;;;;;4.97;2.88;;;;;;;;;;4966393;28;20049;-74
2023/10/08 07:53:17;;;;;;;5.72;2.85;;;;;;;;;;4968501;28;20045;-73
2023/10/08 07:55:45;;;;;;;8.05;2.95;;;;;;;;;;4970494;28;20035;-74
2023/10/08 07:58:11;;;;;;;5.45;2.67;;;;;;;;;;4968014;28;20053;-75
2023/10/08 08:00:39;;;;;;;4.65;2.35;;;;;;;;;;4936492;28;20023;-75
2023/10/08 08:03:05;;;;;;;4.07;2.53;;;;;;;;;;4970582;28;20051;-75
2023/10/08 08:05:31;;;;;;;4.07;2.47;;;;;;;;;;4950727;28;20046;-76
2023/10/08 08:08:05;;;;;;;5.20;2.42;;;;;;;;;;4960361;28;20062;-75
2023/10/08 08:10:38;;;;;;;5.82;2.80;;;;;;;;;;4940522;29;20519;-76
2023/10/08 08:13:09;;;;;;;6.28;2.60;;;;;;;;;;4966251;28;20027;-76
2023/10/08 08:15:40;;;;;;;6.55;2.78;;;;;;;;;;4966428;28;20038;-74
2023/10/08 08:18:07;;;;;;;5.00;3.22;;;;;;;;;;4947265;28;20068;-74
2023/10/08 08:20:43;;;;;;;6.80;2.83;;;;;;;;;;4948461;28;20384;-75
2023/10/08 08:23:09;;;;;;;7.20;3.08;;;;;;;;;;4953927;28;20057;-75
2023/10/08 08:26:44;;;;;;;5.22;3.17;;;;;;;;;;4970321;28;20412;-74
2023/10/08 08:28:34;;;;;;;5.55;3.13;;;;;;;;;;4956168;28;20505;-74
2023/10/08 08:31:04;;;;;;;3.72;2.60;;;;;;;;;;4949780;28;20023;-75
2023/10/08 08:33:52;;;;;;;5.32;3.25;;;;;;;;;;4968473;28;20029;-74
2023/10/08 08:36:17;;;;;;;6.70;3.22;;;;;;;;;;4966683;28;20038;-75
2023/10/08 08:38:43;;;;;;;9.55;3.30;;;;;;;;;;4963110;28;20058;-74
2023/10/08 08:41:12;;;;;;;4.47;3.00;;;;;;;;;;4963488;28;20600;-74
2023/10/08 08:43:43;;;;;;;5.05;3.08;;;;;;;;;;4969433;28;20027;-74
2023/10/08 08:46:12;;;;;;;4.63;2.90;;;;;;;;;;4962445;28;20138;-75
2023/10/08 08:48:42;;;;;;;12.15;2.85;;;;;;;;;;4963548;28;20113;-75
2023/10/08 08:51:09;;;;;;;5.00;3.20;;;;;;;;;;4964781;28;20053;-73
2023/10/08 08:53:40;;;;;;;7.60;3.30;;;;;;;;;;4947546;28;20039;-74
2023/10/08 08:56:09;;;;;;;5.93;2.95;;;;;;;;;;4964258;28;20022;-76
2023/10/08 08:58:36;;;;;;;5.22;3.17;;;;;;;;;;4966499;28;20034;-74
2023/10/08 09:01:04;;;;;;;3.72;3.10;;;;;;;;;;4950555;28;20062;-74
2023/10/08 09:03:30;;;;;;;7.60;2.97;;;;;;;;;;4968983;28;20026;-76
2023/10/08 09:06:00;;;;;;;8.20;3.28;;;;;;;;;;4966434;28;20027;-74
2023/10/08 09:08:28;;;;;;;5.80;2.85;;;;;;;;;;4967123;28;20114;-74
2023/10/08 09:11:00;;;;;;;5.47;2.92;;;;;;;;;;4963276;28;20042;-75
2023/10/08 09:13:27;;;;;;;7.60;3.40;;;;;;;;;;4950178;28;20069;-74
2023/10/08 09:15:57;;;;;;;6.57;2.90;;;;;;;;;;4944257;28;20057;-74
2023/10/08 09:18:27;;;;;;;6.40;3.75;;;;;;;;;;4963551;28;20149;-74
2023/10/08 09:20:55;;;;;;;6.28;3.70;;;;;;;;;;4962464;28;20031;-75
2023/10/08 09:23:22;;;;;;;8.50;3.92;;;;;;;;;;4965764;28;20053;-74
2023/10/08 09:25:49;;;;;;;7.10;3.70;;;;;;;;;;4966652;28;20038;-74
2023/10/08 09:28:16;;;;;;;6.85;3.47;;;;;;;;;;4967751;28;20031;-74
2023/10/08 09:30:44;;;;;;;7.72;3.90;;;;;;;;;;4964302;28;20788;-74
2023/10/08 09:33:15;;;;;;;7.50;3.63;;;;;;;;;;4963937;28;20030;-74
2023/10/08 09:35:43;;;;;;;6.35;3.80;;;;;;;;;;4963626;28;20047;-75
2023/10/08 09:38:09;;;;;;;7.40;3.92;;;;;;;;;;4960617;28;20178;-75
2023/10/08 09:40:41;;;;;;;7.95;4.53;;;;;;;;;;4967180;28;20034;-74
2023/10/08 09:43:09;;;;;;;7.82;4.28;;;;;;;;;;4964006;28;20034;-77
2023/10/08 09:45:36;;;;;;;18.55;4.30;;;;;;;;;;4950429;28;20038;-75
2023/10/08 09:48:02;;;;;;;7.43;4.30;;;;;;;;;;4960121;28;20059;-74
2023/10/08 09:50:32;;;;;;;10.60;3.92;;;;;;;;;;4962737;28;20053;-76
2023/10/08 09:53:06;;;;;;;9.18;4.05;;;;;;;;;;4962958;28;20167;-74
2023/10/08 09:55:32;;;;;;;7.78;4.20;;;;;;;;;;4958235;28;20038;-75
2023/10/08 09:57:58;;;;;;;13.13;4.13;;;;;;;;;;4960969;28;20137;-75
2023/10/08 10:00:30;;;;;;;8.93;4.00;;;;;;;;;;4966396;28;20124;-76
2023/10/08 10:03:03;;;;;;;9.02;3.60;;;;;;;;;;4965523;28;20027;-74
2023/10/08 10:05:30;;;;;;;9.32;4.30;;;;;;;;;;4965978;28;20035;-74
2023/10/08 10:07:56;;;;;;;8.55;4.15;;;;;;;;;;4968970;28;20155;-75
2023/10/08 10:10:27;;;;;;;7.25;4.25;;;;;;;;;;4964212;28;20036;-74
2023/10/08 10:12:53;;;;;;;7.15;4.70;;;;;;;;;;4949746;28;20054;-74
2023/10/08 10:15:21;;;;;;;9.70;4.53;;;;;;;;;;4967211;28;20321;-74
2023/10/08 10:17:49;;;;;;;7.95;3.80;;;;;;;;;;4966950;28;20169;-73
2023/10/08 10:20:16;;;;;;;9.55;3.63;;;;;;;;;;4969078;28;20071;-74
2023/10/08 10:22:43;;;;;;;4.90;3.70;;;;;;;;;;4960907;28;20015;-74
2023/10/08 10:25:20;;;;;;;6.88;3.85;;;;;;;;;;4963366;28;20034;-75
2023/10/08 10:27:55;;;;;;;7.82;3.72;;;;;;;;;;4963730;28;20079;-74
2023/10/08 10:30:23;;;;;;;8.30;4.10;;;;;;;;;;4962544;28;20031;-74
2023/10/08 10:32:52;;;;;;;8.57;4.10;;;;;;;;;;4964721;28;20034;-74
2023/10/08 10:35:19;;;;;;;6.20;3.33;;;;;;;;;;4965449;28;20031;-75
2023/10/08 10:37:51;;;;;;;6.88;3.78;;;;;;;;;;4936025;28;20054;-75
2023/10/08 10:40:39;;;;;;;7.68;3.63;;;;;;;;;;4963795;28;20037;-75
2023/10/08 10:43:06;;;;;;;7.45;4.03;;;;;;;;;;4967629;28;20049;-73
2023/10/08 10:45:36;;;;;;;10.63;4.00;;;;;;;;;;4966169;28;20031;-74
2023/10/08 10:48:21;;;;;;;6.10;3.72;;;;;;;;;;4965369;28;20109;-74
2023/10/08 10:51:06;;;;;;;8.40;3.92;;;;;;;;;;4945229;28;20156;-73
2023/10/08 10:53:44;;;;;;;5.72;3.53;;;;;;;;;;4927772;28;20038;-74
2023/10/08 10:56:18;;;;;;;10.25;4.95;;;;;;;;;;4969609;28;20093;-74
2023/10/08 10:58:53;;;;;;;6.53;3.75;;;;;;;;;;4973244;28;20355;-74
2023/10/08 11:01:23;;;;;;;6.82;4.30;;;;;;;;;;4972579;28;20086;-74
2023/10/08 11:03:53;;;;;;;7.28;3.60;;;;;;;;;;4956895;28;20073;-74
2023/10/08 11:06:22;;;;;;;5.95;3.75;;;;;;;;;;4974058;28;20093;-75
2023/10/08 11:08:50;;;;;;;8.13;4.22;;;;;;;;;;4953888;28;20071;-74
2023/10/08 11:11:17;;;;;;;8.68;4.25;;;;;;;;;;4973470;28;20089;-74
2023/10/08 11:13:51;;;;;;;15.70;4.88;;;;;;;;;;4973616;28;20035;-76
2023/10/08 11:16:21;;;;;;;9.32;4.30;;;;;;;;;;4972644;28;20038;-74
2023/10/08 11:18:50;;;;;;;9.07;3.85;;;;;;;;;;4965383;28;20395;-74
2023/10/08 11:21:17;;;;;;;5.93;3.90;;;;;;;;;;4957703;28;20544;-75
2023/10/08 11:23:55;;;;;;;6.50;3.88;;;;;;;;;;4958111;28;20077;-74
2023/10/08 11:26:31;;;;;;;9.77;4.95;;;;;;;;;;4978997;28;20066;-75
2023/10/08 11:29:00;;;;;;;10.50;4.43;;;;;;;;;;4978732;28;20086;-75
2023/10/08 11:31:27;;;;;;;7.15;4.22;;;;;;;;;;4975742;28;20074;-74
2023/10/08 11:33:59;;;;;;;9.20;4.88;;;;;;;;;;4974774;28;20145;-75
2023/10/08 11:36:27;;;;;;;7.70;5.30;;;;;;;;;;4974796;28;20054;-75
2023/10/08 11:39:00;;;;;;;10.27;5.15;;;;;;;;;;4956832;28;20027;-76
2023/10/08 11:41:27;;;;;;;10.68;5.50;;;;;;;;;;4956783;28;20508;-74
2023/10/08 11:43:58;;;;;;;9.07;5.53;;;;;;;;;;4968309;28;20392;-75
2023/10/08 11:46:32;;;;;;;9.93;5.70;;;;;;;;;;4957144;28;20099;-75
2023/10/08 11:49:03;;;;;;;9.95;6.05;;;;;;;;;;4973376;28;20050;-74
2023/10/08 11:51:32;;;;;;;9.48;5.50;;;;;;;;;;4955881;28;20030;-74
2023/10/08 11:53:59;;;;;;;9.05;5.57;;;;;;;;;;4973701;28;20106;-74
2023/10/08 11:56:26;;;;;;;11.77;6.00;;;;;;;;;;4953962;28;20064;-75
2023/10/08 11:58:52;;;;;;;9.60;6.00;;;;;;;;;;4972834;28;20037;-74
2023/10/08 12:01:18;;;;;;;9.80;5.72;;;;;;;;;;4970827;28;20078;-74
2023/10/08 12:03:45;;;;;;;12.20;6.30;;;;;;;;;;4972893;28;20030;-74
2023/10/08 12:06:18;;;;;;;7.53;5.97;;;;;;;;;;4972525;28;20050;-74
2023/10/08 12:08:46;;;;;;;11.38;6.03;;;;;;;;;;4971824;28;20038;-74
2023/10/08 12:11:13;;;;;;;9.15;5.93;;;;;;;;;;4956351;28;20070;-74
2023/10/08 12:13:44;;;;;;;12.32;6.53;;;;;;;;;;4957580;28;20374;-74
2023/10/08 12:16:29;;;;;;;9.75;6.30;;;;;;;;;;4972700;28;20089;-74
2023/10/08 12:18:59;;;;;;;12.07;7.68;;;;;;;;;;4953788;29;20134;-74
2023/10/08 12:21:31;;;;;;;11.57;6.63;;;;;;;;;;4968395;28;20023;-75
2023/10/08 12:23:58;;;;;;;12.70;6.60;;;;;;;;;;4972135;28;20034;-74
2023/10/08 12:26:25;;;;;;;11.10;5.90;;;;;;;;;;4975450;28;20476;-75
2023/10/08 12:28:53;;;;;;;9.95;6.30;;;;;;;;;;4976725;28;20039;-74
2023/10/08 12:31:23;;;;;;;12.77;6.63;;;;;;;;;;4972934;28;20448;-74
2023/10/08 12:33:56;;;;;;;11.00;6.32;;;;;;;;;;4973227;28;20034;-74
2023/10/08 12:36:23;;;;;;;10.55;6.88;;;;;;;;;;4972492;28;20039;-74
2023/10/08 12:38:58;;;;;;;11.68;8.02;;;;;;;;;;4972003;28;20043;-75
2023/10/08 12:41:29;;;;;;;11.98;6.82;;;;;;;;;;4971728;28;20133;-74
2023/10/08 12:43:55;;;;;;;10.15;6.28;;;;;;;;;;4972321;28;20118;-74
2023/10/08 12:46:24;;;;;;;11.88;6.40;;;;;;;;;;4955591;28;20126;-75
2023/10/08 12:48:54;;;;;;;9.40;6.10;;;;;;;;;;4955348;28;20058;-74
2023/10/08 12:51:24;;;;;;;11.95;5.47;;;;;;;;;;4971777;28;20376;-75
2023/10/08 12:54:06;;;;;;;10.70;6.22;;;;;;;;;;4971285;28;20504;-74
2023/10/08 12:56:38;;;;;;;9.70;5.25;;;;;;;;;;4972633;28;20078;-74
2023/10/08 12:59:06;;;;;;;12.02;5.63;;;;;;;;;;4973794;28;20077;-76
2023/10/08 13:01:40;;;;;;;12.52;5.07;;;;;;;;;;4974169;28;20031;-74
2023/10/08 13:04:07;;;;;;;9.93;4.80;;;;;;;;;;4973616;28;20034;-74
2023/10/08 13:06:37;;;;;;;7.45;4.40;;;;;;;;;;4972461;28;20030;-74
2023/10/08 13:09:09;;;;;;;9.50;4.53;;;;;;;;;;4971986;28;20030;-73
2023/10/08 13:11:38;;;;;;;12.85;4.47;;;;;;;;;;4972135;28;20030;-74
2023/10/08 13:14:05;;;;;;;14.40;5.07;;;;;;;;;;4971511;28;20042;-74
2023/10/08 13:16:31;;;;;;;6.88;4.07;;;;;;;;;;4970541;28;20488;-74
2023/10/08 13:18:58;;;;;;;8.48;4.45;;;;;;;;;;4950300;29;20059;-74
2023/10/08 13:21:25;;;;;;;10.05;4.25;;;;;;;;;;4952072;29;20035;-75
2023/10/08 13:23:56;;;;;;;8.57;3.30;;;;;;;;;;4952225;29;20070;-74
2023/10/08 13:26:24;;;;;;;7.78;3.97;;;;;;;;;;4964134;28;20055;-74
2023/10/08 13:28:51;;;;;;;12.55;4.30;;;;;;;;;;4954166;28;20043;-73
2023/10/08 13:31:19;;;;;;;8.65;3.70;;;;;;;;;;4970692;28;20042;-74
2023/10/08 13:33:48;;;;;;;15.88;3.83;;;;;;;;;;4953974;28;20027;-75
2023/10/08 13:36:15;;;;;;;13.75;5.97;;;;;;;;;;4971442;28;20035;-74
2023/10/08 13:38:43;;;;;;;11.98;4.63;;;;;;;;;;4953486;28;20030;-74
2023/10/08 13:41:15;;;;;;;7.75;3.28;;;;;;;;;;4965605;28;20113;-75
2023/10/08 13:43:45;;;;;;;8.13;3.10;;;;;;;;;;4970322;28;20066;-75
2023/10/08 13:46:14;;;;;;;8.70;3.22;;;;;;;;;;4970315;28;20480;-75
2023/10/08 13:48:48;;;;;;;12.05;3.50;;;;;;;;;;4972373;28;20054;-75
2023/10/08 13:51:20;;;;;;;7.75;3.20;;;;;;;;;;4972587;28;20045;-75
2023/10/08 13:54:03;;;;;;;12.13;3.90;;;;;;;;;;4956184;28;20026;-73
2023/10/08 13:56:32;;;;;;;8.35;3.55;;;;;;;;;;4971882;28;20058;-74
2023/10/08 13:59:14;;;;;;;9.82;3.85;;;;;;;;;;4971291;28;20046;-74
2023/10/08 14:01:51;;;;;;;9.95;4.18;;;;;;;;;;4971157;28;20466;-74
2023/10/08 14:04:19;;;;;;;8.77;3.65;;;;;;;;;;4971819;28;20535;-74
2023/10/08 14:06:52;;;;;;;11.18;4.22;;;;;;;;;;4971763;28;20031;-74
2023/10/08 14:09:22;;;;;;;7.80;3.55;;;;;;;;;;4971340;28;20058;-73
2023/10/08 14:11:52;;;;;;;9.70;3.00;;;;;;;;;;4952150;29;20035;-73
2023/10/08 14:14:24;;;;;;;8.38;3.55;;;;;;;;;;4952802;29;20039;-73
2023/10/08 14:16:54;;;;;;;9.60;3.50;;;;;;;;;;4950522;28;20031;-74
2023/10/08 14:19:23;;;;;;;8.18;3.63;;;;;;;;;;4935982;29;20050;-74
2023/10/08 14:21:50;;;;;;;15.13;4.07;;;;;;;;;;4956626;28;20337;-75
2023/10/08 14:24:20;;;;;;;10.73;4.10;;;;;;;;;;4963409;28;20031;-75
2023/10/08 14:26:51;;;;;;;8.80;4.05;;;;;;;;;;4951846;29;20071;-73
2023/10/08 14:29:18;;;;;;;10.35;3.90;;;;;;;;;;4941764;29;20042;-74
2023/10/08 14:31:48;;;;;;;10.98;4.70;;;;;;;;;;4935654;29;20028;-73
2023/10/08 14:45:00;;;;;;;11.77;4.43;;;;;;;;;;4971564;28;20038;-74
2023/10/08 14:47:29;;;;;;;7.43;4.15;;;;;;;;;;4974155;28;20043;-74
2023/10/08 14:49:56;;;;;;;8.10;3.58;;;;;;;;;;4955172;29;20035;-74
2023/10/08 14:52:22;;;;;;;9.30;4.85;;;;;;;;;;4955459;29;20144;-75
2023/10/08 14:54:51;;;;;;;11.25;3.83;;;;;;;;;;4963935;28;20042;-75
2023/10/08 14:57:18;;;;;;;8.38;3.95;;;;;;;;;;4974456;28;20142;-74
2023/10/08 14:59:44;;;;;;;12.25;3.88;;;;;;;;;;4973049;28;20034;-75
2023/10/08 15:02:11;;;;;;;8.45;3.97;;;;;;;;;;4973014;28;20027;-74
2023/10/08 15:04:39;;;;;;;10.15;4.65;;;;;;;;;;4974048;28;20035;-74
2023/10/08 15:07:10;;;;;;;8.38;3.55;;;;;;;;;;4972787;28;20027;-74
2023/10/08 15:09:38;;;;;;;16.55;4.50;;;;;;;;;;4959241;28;20043;-74
2023/10/08 15:12:07;;;;;;;9.48;4.32;;;;;;;;;;4954693;28;20065;-73
2023/10/08 15:14:34;;;;;;;9.38;3.58;;;;;;;;;;4974270;28;20119;-74
2023/10/08 15:17:01;;;;;;;12.95;4.55;;;;;;;;;;4955843;28;20039;-74
2023/10/08 15:19:27;;;;;;;13.27;5.13;;;;;;;;;;4956687;28;20054;-74
2023/10/08 15:21:53;;;;;;;14.00;5.40;;;;;;;;;;4955768;28;20066;-74
2023/10/08 15:24:21;;;;;;;10.23;3.90;;;;;;;;;;4975273;28;20039;-74
2023/10/08 15:26:52;;;;;;;15.43;6.03;;;;;;;;;;4977873;28;20094;-74
2023/10/08 15:29:21;;;;;;;9.52;4.18;;;;;;;;;;4980510;28;20027;-75
2023/10/08 15:31:49;;;;;;;9.85;3.70;;;;;;;;;;4970088;28;20104;-77
2023/10/08 15:34:16;;;;;;;11.13;3.40;;;;;;;;;;4959611;28;20054;-74
2023/10/08 15:36:42;;;;;;;10.40;3.70;;;;;;;;;;4965042;28;20060;-75
2023/10/08 15:39:22;;;;;;;8.93;3.78;;;;;;;;;;4965977;28;20037;-74
2023/10/08 15:41:49;;;;;;;10.97;3.77;;;;;;;;;;4967218;28;20114;-74
2023/10/08 15:44:17;;;;;;;9.07;3.55;;;;;;;;;;4967156;28;20144;-75
2023/10/08 15:46:44;;;;;;;10.70;3.75;;;;;;;;;;4970815;28;20039;-75
2023/10/08 15:49:11;;;;;;;8.05;3.63;;;;;;;;;;4971038;28;20051;-75
2023/10/08 15:51:37;;;;;;;9.43;3.83;;;;;;;;;;4960842;28;20105;-75
2023/10/08 15:54:05;;;;;;;10.02;3.45;;;;;;;;;;4942417;28;20028;-74
2023/10/08 15:56:32;;;;;;;8.82;3.50;;;;;;;;;;4956035;28;20043;-75
2023/10/08 15:58:58;;;;;;;10.05;3.92;;;;;;;;;;4964040;28;20055;-74
2023/10/08 16:01:27;;;;;;;7.60;3.85;;;;;;;;;;4961242;28;20050;-79
2023/10/08 16:03:53;;;;;;;9.32;3.70;;;;;;;;;;4963840;28;20027;-76
2023/10/08 16:06:20;;;;;;;7.93;3.25;;;;;;;;;;4957754;28;20121;-77
2023/10/08 16:08:46;;;;;;;24.30;9.35;;;;;;;;;;4944674;28;20043;-74
2023/10/08 16:11:13;;;;;;;11.48;3.75;;;;;;;;;;4964264;28;20181;-74
2023/10/08 16:13:42;;;;;;;10.73;6.22;;;;;;;;;;4969236;28;20352;-75